Mesilla, New Mexico
Current Conditions -  °F | °C
As of 2:55 AM on Wednesday 26 Nov 2014 (Local Time) from KLRU Reporting Station
Clear Clear  
Wind Chill: 29°   Ceiling: Unl
Heat Index: 33°   Visibility: 10mi
Dew Point:   Wind: 5mph
Humidity: 26%   Direction: 320°NW
Pressure: 30.31"   Gusts: NA
Location:  32.27°N, 106.8°W
Report Text: KLRU 260955Z AUTO 32004KT 10SM CLR 01/M17 A3031 RMK AO2 T00061172 PWINO
Loading
Personal Weather Stations






























Interactive Weather Map New forecast layout! Learn more

10-Day Weather Forecast

Advertisements
Track Severe Weather on mobile